sensor_id;sensor_type;location;lat;lon;timestamp;P1;durP1;ratioP1;P2;durP2;ratioP2
18623;SDS011;9441;51.420;7.036;2022-10-03T00:01:12;22.97;;;5.67;;
18623;SDS011;9441;51.420;7.036;2022-10-03T00:02:27;21.87;;;6.10;;
18623;SDS011;9441;51.420;7.036;2022-10-03T00:03:39;17.20;;;5.93;;
18623;SDS011;9441;51.420;7.036;2022-10-03T00:04:52;25.73;;;5.60;;
18623;SDS011;9441;51.420;7.036;2022-10-03T00:06:04;18.10;;;6.03;;
18623;SDS011;9441;51.420;7.036;2022-10-03T00:07:14;23.97;;;5.90;;
18623;SDS011;9441;51.420;7.036;2022-10-03T00:08:36;22.73;;;5.73;;
18623;SDS011;9441;51.420;7.036;2022-10-03T00:09:51;30.87;;;6.53;;
18623;SDS011;9441;51.420;7.036;2022-10-03T00:11:04;22.13;;;6.07;;
18623;SDS011;9441;51.420;7.036;2022-10-03T00:12:30;17.47;;;6.07;;
18623;SDS011;9441;51.420;7.036;2022-10-03T00:13:48;23.53;;;5.80;;
18623;SDS011;9441;51.420;7.036;2022-10-03T00:14:59;17.97;;;5.33;;
18623;SDS011;9441;51.420;7.036;2022-10-03T00:16:06;21.63;;;6.20;;
18623;SDS011;9441;51.420;7.036;2022-10-03T00:17:14;23.23;;;6.73;;
18623;SDS011;9441;51.420;7.036;2022-10-03T00:18:23;21.70;;;5.73;;
18623;SDS011;9441;51.420;7.036;2022-10-03T00:19:36;21.97;;;6.10;;
18623;SDS011;9441;51.420;7.036;2022-10-03T00:20:45;22.97;;;6.47;;
18623;SDS011;9441;51.420;7.036;2022-10-03T00:21:56;22.27;;;6.07;;
18623;SDS011;9441;51.420;7.036;2022-10-03T00:23:07;21.93;;;6.40;;
18623;SDS011;9441;51.420;7.036;2022-10-03T00:24:20;25.00;;;6.40;;
18623;SDS011;9441;51.420;7.036;2022-10-03T00:25:31;31.10;;;6.00;;
18623;SDS011;9441;51.420;7.036;2022-10-03T00:26:41;24.27;;;6.00;;
18623;SDS011;9441;51.420;7.036;2022-10-03T00:27:50;19.30;;;6.10;;
18623;SDS011;9441;51.420;7.036;2022-10-03T00:28:57;20.57;;;6.20;;
18623;SDS011;9441;51.420;7.036;2022-10-03T00:30:19;19.63;;;5.80;;
18623;SDS011;9441;51.420;7.036;2022-10-03T00:31:22;29.73;;;6.57;;
18623;SDS011;9441;51.420;7.036;2022-10-03T00:32:28;32.57;;;6.73;;
18623;SDS011;9441;51.420;7.036;2022-10-03T00:33:44;27.23;;;6.13;;
18623;SDS011;9441;51.420;7.036;2022-10-03T00:35:07;26.07;;;6.73;;
18623;SDS011;9441;51.420;7.036;2022-10-03T00:36:19;24.93;;;6.77;;
18623;SDS011;9441;51.420;7.036;2022-10-03T00:37:29;25.53;;;6.10;;
18623;SDS011;9441;51.420;7.036;2022-10-03T00:38:43;30.60;;;7.07;;
18623;SDS011;9441;51.420;7.036;2022-10-03T00:40:05;28.30;;;6.67;;
18623;SDS011;9441;51.420;7.036;2022-10-03T00:41:37;25.03;;;6.97;;
18623;SDS011;9441;51.420;7.036;2022-10-03T00:46:36;18.07;;;6.30;;
18623;SDS011;9441;51.420;7.036;2022-10-03T00:48:00;25.77;;;6.43;;
18623;SDS011;9441;51.420;7.036;2022-10-03T00:49:27;28.67;;;7.27;;
18623;SDS011;9441;51.420;7.036;2022-10-03T00:51:02;25.20;;;6.37;;
18623;SDS011;9441;51.420;7.036;2022-10-03T00:52:18;22.80;;;7.13;;
18623;SDS011;9441;51.420;7.036;2022-10-03T00:53:35;30.23;;;6.40;;
18623;SDS011;9441;51.420;7.036;2022-10-03T00:54:49;25.70;;;6.83;;
18623;SDS011;9441;51.420;7.036;2022-10-03T00:56:19;28.37;;;6.60;;
18623;SDS011;9441;51.420;7.036;2022-10-03T00:57:39;26.30;;;6.90;;
18623;SDS011;9441;51.420;7.036;2022-10-03T00:58:55;31.50;;;6.57;;
18623;SDS011;9441;51.420;7.036;2022-10-03T01:00:12;26.13;;;6.47;;
18623;SDS011;9441;51.420;7.036;2022-10-03T01:01:28;24.30;;;6.07;;
18623;SDS011;9441;51.420;7.036;2022-10-03T01:02:59;22.20;;;6.27;;
18623;SDS011;9441;51.420;7.036;2022-10-03T01:04:14;29.00;;;6.17;;
18623;SDS011;9441;51.420;7.036;2022-10-03T01:05:38;25.30;;;6.30;;
18623;SDS011;9441;51.420;7.036;2022-10-03T01:06:53;23.73;;;6.37;;
18623;SDS011;9441;51.420;7.036;2022-10-03T01:08:09;35.80;;;6.23;;
18623;SDS011;9441;51.420;7.036;2022-10-03T01:09:35;25.60;;;6.77;;
18623;SDS011;9441;51.420;7.036;2022-10-03T01:10:48;28.07;;;7.13;;
18623;SDS011;9441;51.420;7.036;2022-10-03T01:13:28;22.70;;;5.87;;
18623;SDS011;9441;51.420;7.036;2022-10-03T01:14:39;20.27;;;6.50;;
18623;SDS011;9441;51.420;7.036;2022-10-03T01:15:54;25.63;;;6.40;;
18623;SDS011;9441;51.420;7.036;2022-10-03T01:17:10;31.33;;;6.93;;
18623;SDS011;9441;51.420;7.036;2022-10-03T01:18:22;23.13;;;6.87;;
18623;SDS011;9441;51.420;7.036;2022-10-03T01:19:47;20.80;;;6.33;;
18623;SDS011;9441;51.420;7.036;2022-10-03T01:21:10;31.13;;;6.70;;
18623;SDS011;9441;51.420;7.036;2022-10-03T01:22:29;24.33;;;6.60;;
18623;SDS011;9441;51.420;7.036;2022-10-03T01:23:54;24.10;;;6.37;;
18623;SDS011;9441;51.420;7.036;2022-10-03T01:25:17;30.37;;;6.70;;
18623;SDS011;9441;51.420;7.036;2022-10-03T01:26:29;22.80;;;6.43;;
18623;SDS011;9441;51.420;7.036;2022-10-03T01:27:52;19.20;;;6.37;;
18623;SDS011;9441;51.420;7.036;2022-10-03T01:29:22;29.10;;;7.13;;
18623;SDS011;9441;51.420;7.036;2022-10-03T01:30:54;28.30;;;6.60;;
18623;SDS011;9441;51.420;7.036;2022-10-03T01:32:00;27.77;;;6.53;;
18623;SDS011;9441;51.420;7.036;2022-10-03T01:33:09;23.27;;;6.67;;
18623;SDS011;9441;51.420;7.036;2022-10-03T01:34:18;22.97;;;6.57;;
18623;SDS011;9441;51.420;7.036;2022-10-03T01:35:29;31.73;;;7.07;;
18623;SDS011;9441;51.420;7.036;2022-10-03T01:36:41;25.67;;;7.00;;
18623;SDS011;9441;51.420;7.036;2022-10-03T01:37:54;24.37;;;6.73;;
18623;SDS011;9441;51.420;7.036;2022-10-03T01:39:05;23.00;;;7.03;;
18623;SDS011;9441;51.420;7.036;2022-10-03T01:40:16;27.00;;;6.80;;
18623;SDS011;9441;51.420;7.036;2022-10-03T01:41:27;20.17;;;6.17;;
18623;SDS011;9441;51.420;7.036;2022-10-03T01:42:36;25.67;;;6.57;;
18623;SDS011;9441;51.420;7.036;2022-10-03T01:43:44;27.97;;;6.93;;
18623;SDS011;9441;51.420;7.036;2022-10-03T01:44:56;28.07;;;6.53;;
18623;SDS011;9441;51.420;7.036;2022-10-03T01:46:05;22.60;;;6.77;;
18623;SDS011;9441;51.420;7.036;2022-10-03T01:47:18;26.87;;;6.83;;
18623;SDS011;9441;51.420;7.036;2022-10-03T01:48:25;20.23;;;6.50;;
18623;SDS011;9441;51.420;7.036;2022-10-03T01:49:37;28.47;;;6.97;;
18623;SDS011;9441;51.420;7.036;2022-10-03T01:50:44;19.27;;;6.13;;
18623;SDS011;9441;51.420;7.036;2022-10-03T01:51:54;18.83;;;6.53;;
18623;SDS011;9441;51.420;7.036;2022-10-03T01:53:05;27.30;;;6.83;;
18623;SDS011;9441;51.420;7.036;2022-10-03T01:54:15;22.17;;;6.80;;
18623;SDS011;9441;51.420;7.036;2022-10-03T01:55:27;29.40;;;6.77;;
18623;SDS011;9441;51.420;7.036;2022-10-03T01:56:34;22.07;;;6.57;;
18623;SDS011;9441;51.420;7.036;2022-10-03T01:57:43;22.70;;;6.50;;
18623;SDS011;9441;51.420;7.036;2022-10-03T01:58:51;21.03;;;6.50;;
18623;SDS011;9441;51.420;7.036;2022-10-03T02:00:04;29.93;;;7.60;;
18623;SDS011;9441;51.420;7.036;2022-10-03T02:01:13;28.13;;;7.30;;
18623;SDS011;9441;51.420;7.036;2022-10-03T02:02:25;28.87;;;7.17;;
18623;SDS011;9441;51.420;7.036;2022-10-03T02:03:34;27.40;;;7.30;;
18623;SDS011;9441;51.420;7.036;2022-10-03T02:04:41;26.63;;;7.00;;
18623;SDS011;9441;51.420;7.036;2022-10-03T02:05:53;23.83;;;7.73;;
18623;SDS011;9441;51.420;7.036;2022-10-03T02:07:03;31.03;;;7.40;;
18623;SDS011;9441;51.420;7.036;2022-10-03T02:08:15;32.97;;;7.90;;
18623;SDS011;9441;51.420;7.036;2022-10-03T02:09:28;28.30;;;8.57;;
18623;SDS011;9441;51.420;7.036;2022-10-03T02:10:38;29.33;;;7.60;;
18623;SDS011;9441;51.420;7.036;2022-10-03T02:11:54;32.50;;;8.13;;
18623;SDS011;9441;51.420;7.036;2022-10-03T02:13:04;21.50;;;7.27;;
18623;SDS011;9441;51.420;7.036;2022-10-03T02:14:15;32.17;;;7.73;;
18623;SDS011;9441;51.420;7.036;2022-10-03T02:15:25;27.30;;;7.80;;
18623;SDS011;9441;51.420;7.036;2022-10-03T02:16:35;29.77;;;7.30;;
18623;SDS011;9441;51.420;7.036;2022-10-03T02:17:42;25.57;;;7.60;;
18623;SDS011;9441;51.420;7.036;2022-10-03T02:18:52;25.40;;;8.03;;
18623;SDS011;9441;51.420;7.036;2022-10-03T02:20:00;22.70;;;7.70;;
18623;SDS011;9441;51.420;7.036;2022-10-03T02:21:11;30.93;;;8.17;;
18623;SDS011;9441;51.420;7.036;2022-10-03T02:22:27;24.80;;;7.93;;
18623;SDS011;9441;51.420;7.036;2022-10-03T02:23:39;29.93;;;8.40;;
18623;SDS011;9441;51.420;7.036;2022-10-03T02:24:45;25.97;;;8.13;;
18623;SDS011;9441;51.420;7.036;2022-10-03T02:25:57;24.60;;;7.93;;
18623;SDS011;9441;51.420;7.036;2022-10-03T02:29:03;31.77;;;8.40;;
18623;SDS011;9441;51.420;7.036;2022-10-03T02:30:18;24.57;;;8.43;;
18623;SDS011;9441;51.420;7.036;2022-10-03T02:31:40;29.70;;;7.90;;
18623;SDS011;9441;51.420;7.036;2022-10-03T02:34:57;32.67;;;8.50;;
18623;SDS011;9441;51.420;7.036;2022-10-03T02:36:17;28.53;;;8.17;;
18623;SDS011;9441;51.420;7.036;2022-10-03T02:37:51;33.47;;;9.20;;
18623;SDS011;9441;51.420;7.036;2022-10-03T02:40:45;23.93;;;8.00;;
18623;SDS011;9441;51.420;7.036;2022-10-03T02:42:28;28.87;;;9.27;;
18623;SDS011;9441;51.420;7.036;2022-10-03T02:44:06;25.93;;;8.37;;
18623;SDS011;9441;51.420;7.036;2022-10-03T02:45:28;26.87;;;8.43;;
18623;SDS011;9441;51.420;7.036;2022-10-03T02:48:40;28.93;;;8.90;;
18623;SDS011;9441;51.420;7.036;2022-10-03T02:51:53;25.37;;;8.70;;
18623;SDS011;9441;51.420;7.036;2022-10-03T02:58:30;19.50;;;7.67;;
18623;SDS011;9441;51.420;7.036;2022-10-03T02:59:55;28.43;;;8.70;;
18623;SDS011;9441;51.420;7.036;2022-10-03T03:01:15;25.77;;;8.57;;
18623;SDS011;9441;51.420;7.036;2022-10-03T03:07:53;35.50;;;9.03;;
18623;SDS011;9441;51.420;7.036;2022-10-03T03:09:34;24.43;;;8.90;;
18623;SDS011;9441;51.420;7.036;2022-10-03T03:11:15;30.87;;;8.97;;
18623;SDS011;9441;51.420;7.036;2022-10-03T03:12:59;30.17;;;8.47;;
18623;SDS011;9441;51.420;7.036;2022-10-03T03:14:39;24.20;;;8.03;;
18623;SDS011;9441;51.420;7.036;2022-10-03T03:16:17;25.03;;;8.63;;
18623;SDS011;9441;51.420;7.036;2022-10-03T03:17:39;35.27;;;8.63;;
18623;SDS011;9441;51.420;7.036;2022-10-03T03:18:51;22.83;;;8.47;;
18623;SDS011;9441;51.420;7.036;2022-10-03T03:21:25;27.83;;;8.20;;
18623;SDS011;9441;51.420;7.036;2022-10-03T03:22:38;27.03;;;9.27;;
18623;SDS011;9441;51.420;7.036;2022-10-03T03:23:52;32.63;;;9.07;;
18623;SDS011;9441;51.420;7.036;2022-10-03T03:25:09;27.47;;;9.30;;
18623;SDS011;9441;51.420;7.036;2022-10-03T03:26:44;30.57;;;9.00;;
18623;SDS011;9441;51.420;7.036;2022-10-03T03:28:00;27.40;;;9.37;;
18623;SDS011;9441;51.420;7.036;2022-10-03T03:29:15;26.43;;;8.90;;
18623;SDS011;9441;51.420;7.036;2022-10-03T03:30:24;25.07;;;8.17;;
18623;SDS011;9441;51.420;7.036;2022-10-03T03:31:35;34.13;;;9.67;;
18623;SDS011;9441;51.420;7.036;2022-10-03T03:32:48;30.57;;;8.97;;
18623;SDS011;9441;51.420;7.036;2022-10-03T03:33:57;32.13;;;10.00;;
18623;SDS011;9441;51.420;7.036;2022-10-03T03:35:09;28.30;;;9.13;;
18623;SDS011;9441;51.420;7.036;2022-10-03T03:36:19;28.10;;;9.57;;
18623;SDS011;9441;51.420;7.036;2022-10-03T03:37:29;33.40;;;9.70;;
18623;SDS011;9441;51.420;7.036;2022-10-03T03:38:37;33.80;;;10.37;;
18623;SDS011;9441;51.420;7.036;2022-10-03T03:39:49;34.47;;;9.80;;
18623;SDS011;9441;51.420;7.036;2022-10-03T03:42:32;29.83;;;9.67;;
18623;SDS011;9441;51.420;7.036;2022-10-03T03:43:58;29.77;;;9.63;;
18623;SDS011;9441;51.420;7.036;2022-10-03T03:45:15;35.90;;;9.63;;
18623;SDS011;9441;51.420;7.036;2022-10-03T03:46:36;29.37;;;9.47;;
18623;SDS011;9441;51.420;7.036;2022-10-03T03:47:52;27.07;;;10.03;;
18623;SDS011;9441;51.420;7.036;2022-10-03T03:49:05;26.87;;;9.60;;
18623;SDS011;9441;51.420;7.036;2022-10-03T03:50:24;28.40;;;9.57;;
18623;SDS011;9441;51.420;7.036;2022-10-03T03:51:40;22.13;;;9.20;;
18623;SDS011;9441;51.420;7.036;2022-10-03T03:52:54;31.77;;;9.50;;
18623;SDS011;9441;51.420;7.036;2022-10-03T03:54:25;28.97;;;9.50;;
18623;SDS011;9441;51.420;7.036;2022-10-03T03:55:54;26.07;;;9.30;;
18623;SDS011;9441;51.420;7.036;2022-10-03T03:57:12;28.43;;;9.87;;
18623;SDS011;9441;51.420;7.036;2022-10-03T03:58:32;28.53;;;9.70;;
18623;SDS011;9441;51.420;7.036;2022-10-03T03:59:38;33.10;;;10.70;;
18623;SDS011;9441;51.420;7.036;2022-10-03T04:01:08;33.97;;;10.30;;
18623;SDS011;9441;51.420;7.036;2022-10-03T04:02:29;30.70;;;10.87;;
18623;SDS011;9441;51.420;7.036;2022-10-03T04:03:45;31.63;;;10.53;;
18623;SDS011;9441;51.420;7.036;2022-10-03T04:04:59;36.03;;;10.27;;
18623;SDS011;9441;51.420;7.036;2022-10-03T04:06:25;32.67;;;10.83;;
18623;SDS011;9441;51.420;7.036;2022-10-03T04:07:40;32.10;;;10.63;;
18623;SDS011;9441;51.420;7.036;2022-10-03T04:10:36;34.07;;;10.13;;
18623;SDS011;9441;51.420;7.036;2022-10-03T04:11:50;31.60;;;9.90;;
18623;SDS011;9441;51.420;7.036;2022-10-03T04:13:09;36.97;;;10.77;;
18623;SDS011;9441;51.420;7.036;2022-10-03T04:16:04;31.70;;;10.27;;
18623;SDS011;9441;51.420;7.036;2022-10-03T04:17:18;32.33;;;11.00;;
18623;SDS011;9441;51.420;7.036;2022-10-03T04:18:53;30.67;;;10.80;;
18623;SDS011;9441;51.420;7.036;2022-10-03T04:20:08;37.97;;;11.47;;
18623;SDS011;9441;51.420;7.036;2022-10-03T04:21:31;39.60;;;11.30;;
18623;SDS011;9441;51.420;7.036;2022-10-03T04:23:12;30.97;;;11.13;;
18623;SDS011;9441;51.420;7.036;2022-10-03T04:24:34;30.73;;;10.27;;
18623;SDS011;9441;51.420;7.036;2022-10-03T04:25:53;30.87;;;10.83;;
18623;SDS011;9441;51.420;7.036;2022-10-03T04:27:15;37.63;;;11.20;;
18623;SDS011;9441;51.420;7.036;2022-10-03T04:30:07;32.20;;;10.47;;
18623;SDS011;9441;51.420;7.036;2022-10-03T04:31:14;38.83;;;11.70;;
18623;SDS011;9441;51.420;7.036;2022-10-03T04:32:31;33.83;;;10.63;;
18623;SDS011;9441;51.420;7.036;2022-10-03T04:33:48;29.27;;;10.90;;
18623;SDS011;9441;51.420;7.036;2022-10-03T04:35:08;32.47;;;10.67;;
18623;SDS011;9441;51.420;7.036;2022-10-03T04:38:08;30.60;;;11.30;;
18623;SDS011;9441;51.420;7.036;2022-10-03T04:39:21;37.03;;;11.27;;
18623;SDS011;9441;51.420;7.036;2022-10-03T04:40:37;37.83;;;11.60;;
18623;SDS011;9441;51.420;7.036;2022-10-03T04:41:49;32.20;;;11.23;;
18623;SDS011;9441;51.420;7.036;2022-10-03T04:42:58;30.93;;;10.80;;
18623;SDS011;9441;51.420;7.036;2022-10-03T04:44:10;37.63;;;11.50;;
18623;SDS011;9441;51.420;7.036;2022-10-03T04:45:30;42.50;;;11.70;;
18623;SDS011;9441;51.420;7.036;2022-10-03T04:46:41;39.77;;;11.53;;
18623;SDS011;9441;51.420;7.036;2022-10-03T04:47:49;28.90;;;11.07;;
18623;SDS011;9441;51.420;7.036;2022-10-03T04:48:56;23.47;;;12.00;;
18623;SDS011;9441;51.420;7.036;2022-10-03T04:50:05;33.17;;;11.80;;
18623;SDS011;9441;51.420;7.036;2022-10-03T04:51:15;34.93;;;11.63;;
18623;SDS011;9441;51.420;7.036;2022-10-03T04:52:25;35.07;;;11.47;;
18623;SDS011;9441;51.420;7.036;2022-10-03T04:53:40;36.63;;;12.27;;
18623;SDS011;9441;51.420;7.036;2022-10-03T04:54:51;33.93;;;11.03;;
18623;SDS011;9441;51.420;7.036;2022-10-03T04:56:04;34.43;;;10.80;;
18623;SDS011;9441;51.420;7.036;2022-10-03T04:57:23;40.20;;;11.80;;
18623;SDS011;9441;51.420;7.036;2022-10-03T04:58:32;34.93;;;12.03;;
18623;SDS011;9441;51.420;7.036;2022-10-03T04:59:40;29.07;;;11.77;;
18623;SDS011;9441;51.420;7.036;2022-10-03T05:00:49;32.83;;;11.57;;
18623;SDS011;9441;51.420;7.036;2022-10-03T05:01:59;28.67;;;11.27;;
18623;SDS011;9441;51.420;7.036;2022-10-03T05:03:05;32.70;;;11.70;;
18623;SDS011;9441;51.420;7.036;2022-10-03T05:04:18;30.43;;;11.30;;
18623;SDS011;9441;51.420;7.036;2022-10-03T05:05:30;39.47;;;11.60;;
18623;SDS011;9441;51.420;7.036;2022-10-03T05:06:44;36.67;;;12.30;;
18623;SDS011;9441;51.420;7.036;2022-10-03T05:07:55;38.00;;;11.97;;
18623;SDS011;9441;51.420;7.036;2022-10-03T05:09:14;32.77;;;11.27;;
18623;SDS011;9441;51.420;7.036;2022-10-03T05:10:25;32.43;;;11.40;;
18623;SDS011;9441;51.420;7.036;2022-10-03T05:12:00;30.97;;;12.03;;
18623;SDS011;9441;51.420;7.036;2022-10-03T05:13:10;30.47;;;11.80;;
18623;SDS011;9441;51.420;7.036;2022-10-03T05:14:19;26.87;;;11.27;;
18623;SDS011;9441;51.420;7.036;2022-10-03T05:15:26;31.27;;;11.87;;
18623;SDS011;9441;51.420;7.036;2022-10-03T05:16:37;32.17;;;12.13;;
18623;SDS011;9441;51.420;7.036;2022-10-03T05:17:44;25.97;;;11.97;;
18623;SDS011;9441;51.420;7.036;2022-10-03T05:18:54;36.63;;;11.73;;
18623;SDS011;9441;51.420;7.036;2022-10-03T05:20:12;32.07;;;11.77;;
18623;SDS011;9441;51.420;7.036;2022-10-03T05:21:29;30.97;;;12.13;;
18623;SDS011;9441;51.420;7.036;2022-10-03T05:22:40;34.10;;;12.63;;
18623;SDS011;9441;51.420;7.036;2022-10-03T05:23:52;32.80;;;12.00;;
18623;SDS011;9441;51.420;7.036;2022-10-03T05:25:08;35.70;;;12.13;;
18623;SDS011;9441;51.420;7.036;2022-10-03T05:26:22;30.23;;;11.57;;
18623;SDS011;9441;51.420;7.036;2022-10-03T05:27:29;33.27;;;11.43;;
18623;SDS011;9441;51.420;7.036;2022-10-03T05:28:43;24.87;;;11.17;;
18623;SDS011;9441;51.420;7.036;2022-10-03T05:29:50;36.33;;;12.43;;
18623;SDS011;9441;51.420;7.036;2022-10-03T05:31:03;35.37;;;12.27;;
18623;SDS011;9441;51.420;7.036;2022-10-03T05:32:16;30.30;;;12.37;;
18623;SDS011;9441;51.420;7.036;2022-10-03T05:33:27;34.40;;;12.23;;
18623;SDS011;9441;51.420;7.036;2022-10-03T05:34:49;38.50;;;12.43;;
18623;SDS011;9441;51.420;7.036;2022-10-03T05:36:05;34.50;;;11.63;;
18623;SDS011;9441;51.420;7.036;2022-10-03T05:37:20;40.67;;;12.87;;
18623;SDS011;9441;51.420;7.036;2022-10-03T05:38:58;38.27;;;12.33;;
18623;SDS011;9441;51.420;7.036;2022-10-03T05:40:17;34.40;;;12.40;;
18623;SDS011;9441;51.420;7.036;2022-10-03T05:41:24;40.77;;;12.50;;
18623;SDS011;9441;51.420;7.036;2022-10-03T05:42:36;30.77;;;11.77;;
18623;SDS011;9441;51.420;7.036;2022-10-03T05:43:50;29.00;;;11.10;;
18623;SDS011;9441;51.420;7.036;2022-10-03T05:45:02;35.47;;;12.13;;
18623;SDS011;9441;51.420;7.036;2022-10-03T05:46:10;34.07;;;12.00;;
18623;SDS011;9441;51.420;7.036;2022-10-03T05:47:24;33.57;;;12.13;;
18623;SDS011;9441;51.420;7.036;2022-10-03T05:48:49;35.00;;;12.20;;
18623;SDS011;9441;51.420;7.036;2022-10-03T05:50:03;36.93;;;12.43;;
18623;SDS011;9441;51.420;7.036;2022-10-03T05:52:55;35.70;;;12.57;;
18623;SDS011;9441;51.420;7.036;2022-10-03T05:54:07;40.73;;;12.03;;
18623;SDS011;9441;51.420;7.036;2022-10-03T05:55:35;34.03;;;12.00;;
18623;SDS011;9441;51.420;7.036;2022-10-03T05:58:27;37.23;;;11.93;;
18623;SDS011;9441;51.420;7.036;2022-10-03T05:59:50;41.00;;;12.83;;
18623;SDS011;9441;51.420;7.036;2022-10-03T06:01:24;29.50;;;12.43;;
18623;SDS011;9441;51.420;7.036;2022-10-03T06:06:11;36.00;;;12.73;;
18623;SDS011;9441;51.420;7.036;2022-10-03T06:07:21;35.00;;;12.17;;
18623;SDS011;9441;51.420;7.036;2022-10-03T06:10:01;30.83;;;11.10;;
18623;SDS011;9441;51.420;7.036;2022-10-03T06:11:45;33.30;;;12.23;;
18623;SDS011;9441;51.420;7.036;2022-10-03T06:13:01;36.97;;;12.07;;
18623;SDS011;9441;51.420;7.036;2022-10-03T06:14:19;34.60;;;12.50;;
18623;SDS011;9441;51.420;7.036;2022-10-03T06:15:34;26.37;;;12.30;;
18623;SDS011;9441;51.420;7.036;2022-10-03T06:16:55;47.17;;;13.20;;
18623;SDS011;9441;51.420;7.036;2022-10-03T06:18:16;37.50;;;12.93;;
18623;SDS011;9441;51.420;7.036;2022-10-03T06:19:46;37.17;;;12.70;;
18623;SDS011;9441;51.420;7.036;2022-10-03T06:23:57;35.30;;;12.00;;
18623;SDS011;9441;51.420;7.036;2022-10-03T06:25:27;38.67;;;12.73;;
18623;SDS011;9441;51.420;7.036;2022-10-03T06:28:35;36.93;;;11.67;;
18623;SDS011;9441;51.420;7.036;2022-10-03T06:35:03;34.60;;;13.10;;
18623;SDS011;9441;51.420;7.036;2022-10-03T06:36:29;35.77;;;12.40;;
18623;SDS011;9441;51.420;7.036;2022-10-03T06:44:09;34.93;;;11.97;;
18623;SDS011;9441;51.420;7.036;2022-10-03T06:45:28;32.47;;;12.00;;
18623;SDS011;9441;51.420;7.036;2022-10-03T06:47:02;32.70;;;11.53;;
18623;SDS011;9441;51.420;7.036;2022-10-03T06:48:18;31.77;;;11.33;;
18623;SDS011;9441;51.420;7.036;2022-10-03T06:49:35;38.77;;;11.77;;
18623;SDS011;9441;51.420;7.036;2022-10-03T06:51:05;32.90;;;11.83;;
18623;SDS011;9441;51.420;7.036;2022-10-03T06:52:35;34.10;;;12.23;;
18623;SDS011;9441;51.420;7.036;2022-10-03T06:57:15;37.27;;;12.00;;
18623;SDS011;9441;51.420;7.036;2022-10-03T07:00:09;27.83;;;12.23;;
18623;SDS011;9441;51.420;7.036;2022-10-03T07:03:16;32.90;;;12.00;;
18623;SDS011;9441;51.420;7.036;2022-10-03T07:04:50;34.87;;;11.60;;
18623;SDS011;9441;51.420;7.036;2022-10-03T07:06:19;36.43;;;12.83;;
18623;SDS011;9441;51.420;7.036;2022-10-03T07:10:00;37.10;;;11.43;;
18623;SDS011;9441;51.420;7.036;2022-10-03T07:13:01;34.53;;;12.17;;
18623;SDS011;9441;51.420;7.036;2022-10-03T07:14:22;34.57;;;12.00;;
18623;SDS011;9441;51.420;7.036;2022-10-03T07:15:55;28.90;;;11.23;;
18623;SDS011;9441;51.420;7.036;2022-10-03T07:17:32;34.50;;;12.13;;
18623;SDS011;9441;51.420;7.036;2022-10-03T07:18:54;39.83;;;12.23;;
18623;SDS011;9441;51.420;7.036;2022-10-03T07:20:31;31.70;;;11.67;;
18623;SDS011;9441;51.420;7.036;2022-10-03T07:23:53;30.63;;;12.70;;
18623;SDS011;9441;51.420;7.036;2022-10-03T07:27:18;33.23;;;13.00;;
18623;SDS011;9441;51.420;7.036;2022-10-03T07:30:13;35.00;;;12.10;;
18623;SDS011;9441;51.420;7.036;2022-10-03T07:31:20;34.77;;;12.57;;
18623;SDS011;9441;51.420;7.036;2022-10-03T07:32:36;30.67;;;12.13;;
18623;SDS011;9441;51.420;7.036;2022-10-03T07:34:17;30.57;;;11.73;;
18623;SDS011;9441;51.420;7.036;2022-10-03T07:35:41;34.27;;;12.53;;
18623;SDS011;9441;51.420;7.036;2022-10-03T07:37:18;32.33;;;11.53;;
18623;SDS011;9441;51.420;7.036;2022-10-03T07:38:50;36.07;;;12.23;;
18623;SDS011;9441;51.420;7.036;2022-10-03T07:41:55;29.70;;;12.27;;
18623;SDS011;9441;51.420;7.036;2022-10-03T07:51:30;37.23;;;12.23;;
18623;SDS011;9441;51.420;7.036;2022-10-03T07:52:44;36.37;;;11.93;;
18623;SDS011;9441;51.420;7.036;2022-10-03T07:57:12;29.37;;;12.57;;
18623;SDS011;9441;51.420;7.036;2022-10-03T07:58:58;33.33;;;12.40;;
18623;SDS011;9441;51.420;7.036;2022-10-03T08:00:19;36.73;;;12.73;;
18623;SDS011;9441;51.420;7.036;2022-10-03T08:01:27;29.07;;;12.30;;
18623;SDS011;9441;51.420;7.036;2022-10-03T08:02:52;38.77;;;12.00;;
18623;SDS011;9441;51.420;7.036;2022-10-03T08:07:26;35.60;;;12.20;;
18623;SDS011;9441;51.420;7.036;2022-10-03T08:09:02;30.10;;;12.33;;
18623;SDS011;9441;51.420;7.036;2022-10-03T08:10:26;29.97;;;12.13;;
18623;SDS011;9441;51.420;7.036;2022-10-03T08:11:52;33.33;;;11.70;;
18623;SDS011;9441;51.420;7.036;2022-10-03T08:13:22;29.77;;;11.20;;
18623;SDS011;9441;51.420;7.036;2022-10-03T08:14:37;29.57;;;11.60;;
18623;SDS011;9441;51.420;7.036;2022-10-03T08:15:53;30.77;;;11.73;;
18623;SDS011;9441;51.420;7.036;2022-10-03T08:17:22;29.57;;;11.17;;
18623;SDS011;9441;51.420;7.036;2022-10-03T08:18:51;32.90;;;11.60;;
18623;SDS011;9441;51.420;7.036;2022-10-03T08:20:19;32.40;;;10.90;;
18623;SDS011;9441;51.420;7.036;2022-10-03T08:21:35;35.73;;;11.73;;
18623;SDS011;9441;51.420;7.036;2022-10-03T08:22:53;22.20;;;10.10;;
18623;SDS011;9441;51.420;7.036;2022-10-03T08:24:19;30.17;;;10.63;;
18623;SDS011;9441;51.420;7.036;2022-10-03T08:25:40;30.23;;;9.70;;
18623;SDS011;9441;51.420;7.036;2022-10-03T08:27:00;37.17;;;9.43;;
18623;SDS011;9441;51.420;7.036;2022-10-03T08:28:21;31.67;;;9.40;;
18623;SDS011;9441;51.420;7.036;2022-10-03T08:29:56;25.20;;;9.20;;
18623;SDS011;9441;51.420;7.036;2022-10-03T08:31:16;27.67;;;8.93;;
18623;SDS011;9441;51.420;7.036;2022-10-03T08:32:45;28.97;;;8.77;;
18623;SDS011;9441;51.420;7.036;2022-10-03T08:34:11;20.07;;;8.30;;
18623;SDS011;9441;51.420;7.036;2022-10-03T08:37:28;22.93;;;8.43;;
18623;SDS011;9441;51.420;7.036;2022-10-03T08:38:51;27.37;;;9.00;;
18623;SDS011;9441;51.420;7.036;2022-10-03T08:41:53;23.20;;;8.07;;
18623;SDS011;9441;51.420;7.036;2022-10-03T08:45:18;27.27;;;8.07;;
18623;SDS011;9441;51.420;7.036;2022-10-03T08:46:50;21.77;;;7.83;;
18623;SDS011;9441;51.420;7.036;2022-10-03T08:50:12;18.00;;;7.50;;
18623;SDS011;9441;51.420;7.036;2022-10-03T08:51:46;22.27;;;7.33;;
18623;SDS011;9441;51.420;7.036;2022-10-03T08:55:09;27.97;;;7.73;;
18623;SDS011;9441;51.420;7.036;2022-10-03T08:56:34;20.70;;;7.80;;
18623;SDS011;9441;51.420;7.036;2022-10-03T08:58:13;27.23;;;8.77;;
18623;SDS011;9441;51.420;7.036;2022-10-03T09:01:13;19.70;;;7.70;;
18623;SDS011;9441;51.420;7.036;2022-10-03T09:02:34;15.10;;;6.43;;
18623;SDS011;9441;51.420;7.036;2022-10-03T09:04:07;21.20;;;7.23;;
18623;SDS011;9441;51.420;7.036;2022-10-03T09:05:52;21.47;;;7.33;;
18623;SDS011;9441;51.420;7.036;2022-10-03T09:07:18;21.00;;;7.30;;
18623;SDS011;9441;51.420;7.036;2022-10-03T09:08:43;21.03;;;6.83;;
18623;SDS011;9441;51.420;7.036;2022-10-03T09:11:36;18.97;;;5.93;;
18623;SDS011;9441;51.420;7.036;2022-10-03T09:13:00;20.40;;;6.43;;
18623;SDS011;9441;51.420;7.036;2022-10-03T09:14:31;21.50;;;6.07;;
18623;SDS011;9441;51.420;7.036;2022-10-03T09:16:01;17.87;;;5.80;;
18623;SDS011;9441;51.420;7.036;2022-10-03T09:19:10;20.60;;;6.13;;
18623;SDS011;9441;51.420;7.036;2022-10-03T09:23:58;16.27;;;3.47;;
18623;SDS011;9441;51.420;7.036;2022-10-03T09:25:21;16.17;;;4.10;;
18623;SDS011;9441;51.420;7.036;2022-10-03T09:30:02;16.57;;;4.00;;
18623;SDS011;9441;51.420;7.036;2022-10-03T09:31:13;16.83;;;4.00;;
18623;SDS011;9441;51.420;7.036;2022-10-03T09:32:30;11.50;;;3.63;;
18623;SDS011;9441;51.420;7.036;2022-10-03T09:34:11;19.35;;;4.13;;
18623;SDS011;9441;51.420;7.036;2022-10-03T09:35:44;12.82;;;3.42;;
18623;SDS011;9441;51.420;7.036;2022-10-03T09:37:14;16.53;;;3.90;;
18623;SDS011;9441;51.420;7.036;2022-10-03T09:40:35;17.27;;;3.60;;
18623;SDS011;9441;51.420;7.036;2022-10-03T09:43:45;7.25;;;2.95;;
18623;SDS011;9441;51.420;7.036;2022-10-03T09:45:09;11.32;;;3.28;;
18623;SDS011;9441;51.420;7.036;2022-10-03T09:46:42;13.40;;;3.15;;